sensor_id;sensor_type;location;lat;lon;timestamp;pressure;altitude;pressure_sealevel;temperature;humidity
37860;BME280;23698;52.014;5.190;2023-04-02T00:00:15;100995.31;;;7.99;100.00
37860;BME280;23698;52.014;5.190;2023-04-02T00:03:05;100996.47;;;8.13;100.00
37860;BME280;23698;52.014;5.190;2023-04-02T00:05:53;101006.06;;;8.16;100.00
37860;BME280;23698;52.014;5.190;2023-04-02T00:08:40;101012.50;;;8.06;100.00
37860;BME280;23698;52.014;5.190;2023-04-02T00:11:28;101012.50;;;8.15;100.00
37860;BME280;23698;52.014;5.190;2023-04-02T00:14:22;101011.56;;;8.55;100.00
37860;BME280;23698;52.014;5.190;2023-04-02T00:17:10;101018.41;;;8.10;100.00
37860;BME280;23698;52.014;5.190;2023-04-02T00:19:59;101021.06;;;8.26;100.00
37860;BME280;23698;52.014;5.190;2023-04-02T00:22:50;101027.31;;;8.43;100.00
37860;BME280;23698;52.014;5.190;2023-04-02T00:25:37;101022.97;;;8.01;100.00
37860;BME280;23698;52.014;5.190;2023-04-02T00:28:26;101038.00;;;7.96;100.00
37860;BME280;23698;52.014;5.190;2023-04-02T00:31:13;101038.19;;;7.78;100.00
37860;BME280;23698;52.014;5.190;2023-04-02T00:34:05;101045.09;;;7.64;100.00
37860;BME280;23698;52.014;5.190;2023-04-02T00:36:52;101055.53;;;7.91;100.00
37860;BME280;23698;52.014;5.190;2023-04-02T00:39:39;101056.38;;;7.84;100.00
37860;BME280;23698;52.014;5.190;2023-04-02T00:42:27;101057.88;;;8.36;100.00
37860;BME280;23698;52.014;5.190;2023-04-02T00:45:20;101065.63;;;8.30;100.00
37860;BME280;23698;52.014;5.190;2023-04-02T00:48:19;101079.50;;;7.86;100.00
37860;BME280;23698;52.014;5.190;2023-04-02T00:51:14;101076.28;;;7.91;100.00
37860;BME280;23698;52.014;5.190;2023-04-02T00:54:04;101087.59;;;7.86;100.00
37860;BME280;23698;52.014;5.190;2023-04-02T00:56:52;101089.78;;;7.99;100.00
37860;BME280;23698;52.014;5.190;2023-04-02T00:59:47;101104.13;;;8.00;100.00
37860;BME280;23698;52.014;5.190;2023-04-02T01:02:34;101101.75;;;7.80;100.00
37860;BME280;23698;52.014;5.190;2023-04-02T01:05:23;101108.53;;;8.01;100.00
37860;BME280;23698;52.014;5.190;2023-04-02T01:08:15;101100.41;;;7.76;100.00
37860;BME280;23698;52.014;5.190;2023-04-02T01:11:18;101111.06;;;8.43;100.00
37860;BME280;23698;52.014;5.190;2023-04-02T01:14:15;101117.47;;;9.06;100.00
37860;BME280;23698;52.014;5.190;2023-04-02T01:17:11;101125.44;;;9.00;100.00
37860;BME280;23698;52.014;5.190;2023-04-02T01:23:23;101141.06;;;7.91;100.00
37860;BME280;23698;52.014;5.190;2023-04-02T01:26:20;101143.28;;;7.20;100.00
37860;BME280;23698;52.014;5.190;2023-04-02T01:29:11;101143.53;;;7.09;100.00
37860;BME280;23698;52.014;5.190;2023-04-02T01:32:01;101140.72;;;7.18;100.00
37860;BME280;23698;52.014;5.190;2023-04-02T01:34:50;101147.47;;;7.23;100.00
37860;BME280;23698;52.014;5.190;2023-04-02T01:37:40;101146.50;;;7.24;100.00
37860;BME280;23698;52.014;5.190;2023-04-02T01:40:35;101158.72;;;7.10;100.00
37860;BME280;23698;52.014;5.190;2023-04-02T01:43:29;101174.38;;;7.06;100.00
37860;BME280;23698;52.014;5.190;2023-04-02T01:46:27;101175.53;;;7.04;100.00
37860;BME280;23698;52.014;5.190;2023-04-02T01:49:18;101177.16;;;7.23;100.00
37860;BME280;23698;52.014;5.190;2023-04-02T01:52:06;101186.97;;;6.97;100.00
37860;BME280;23698;52.014;5.190;2023-04-02T01:54:53;101192.13;;;7.17;100.00
37860;BME280;23698;52.014;5.190;2023-04-02T01:57:43;101186.69;;;7.09;100.00
37860;BME280;23698;52.014;5.190;2023-04-02T02:00:31;101190.66;;;7.31;100.00
37860;BME280;23698;52.014;5.190;2023-04-02T02:03:22;101198.91;;;7.29;100.00
37860;BME280;23698;52.014;5.190;2023-04-02T02:06:11;101195.81;;;7.16;100.00
37860;BME280;23698;52.014;5.190;2023-04-02T02:09:00;101201.25;;;7.67;100.00
37860;BME280;23698;52.014;5.190;2023-04-02T02:11:50;101213.25;;;7.72;100.00
37860;BME280;23698;52.014;5.190;2023-04-02T02:14:36;101215.69;;;7.49;100.00
37860;BME280;23698;52.014;5.190;2023-04-02T02:17:29;101225.38;;;7.26;100.00
37860;BME280;23698;52.014;5.190;2023-04-02T02:20:21;101221.72;;;7.09;100.00
37860;BME280;23698;52.014;5.190;2023-04-02T02:23:09;101227.94;;;7.09;100.00
37860;BME280;23698;52.014;5.190;2023-04-02T02:25:57;101236.38;;;7.06;100.00
37860;BME280;23698;52.014;5.190;2023-04-02T02:28:45;101241.34;;;6.93;100.00
37860;BME280;23698;52.014;5.190;2023-04-02T02:31:36;101248.44;;;6.94;100.00
37860;BME280;23698;52.014;5.190;2023-04-02T02:34:30;101254.78;;;7.45;100.00
37860;BME280;23698;52.014;5.190;2023-04-02T02:37:23;101256.22;;;7.31;100.00
37860;BME280;23698;52.014;5.190;2023-04-02T02:40:11;101264.84;;;7.09;100.00
37860;BME280;23698;52.014;5.190;2023-04-02T02:43:02;101272.94;;;6.83;100.00
37860;BME280;23698;52.014;5.190;2023-04-02T02:45:52;101276.25;;;6.58;100.00
37860;BME280;23698;52.014;5.190;2023-04-02T02:48:41;101282.81;;;6.74;100.00
37860;BME280;23698;52.014;5.190;2023-04-02T02:51:38;101282.38;;;6.60;100.00
37860;BME280;23698;52.014;5.190;2023-04-02T02:54:31;101286.44;;;6.47;100.00
37860;BME280;23698;52.014;5.190;2023-04-02T02:57:22;101293.84;;;6.63;100.00
37860;BME280;23698;52.014;5.190;2023-04-02T03:00:11;101306.06;;;6.57;100.00
37860;BME280;23698;52.014;5.190;2023-04-02T03:03:03;101309.75;;;6.74;100.00
37860;BME280;23698;52.014;5.190;2023-04-02T03:05:56;101309.38;;;6.87;100.00
37860;BME280;23698;52.014;5.190;2023-04-02T03:08:51;101314.53;;;6.80;100.00
37860;BME280;23698;52.014;5.190;2023-04-02T03:11:49;101329.34;;;7.28;100.00
37860;BME280;23698;52.014;5.190;2023-04-02T03:14:43;101339.97;;;7.04;100.00
37860;BME280;23698;52.014;5.190;2023-04-02T03:17:35;101343.84;;;7.01;100.00
37860;BME280;23698;52.014;5.190;2023-04-02T03:20:31;101356.47;;;6.83;100.00
37860;BME280;23698;52.014;5.190;2023-04-02T03:23:23;101367.09;;;6.84;100.00
37860;BME280;23698;52.014;5.190;2023-04-02T03:26:16;101367.94;;;6.49;100.00
37860;BME280;23698;52.014;5.190;2023-04-02T03:29:11;101371.34;;;6.23;100.00
37860;BME280;23698;52.014;5.190;2023-04-02T03:32:04;101381.69;;;6.00;100.00
37860;BME280;23698;52.014;5.190;2023-04-02T03:34:56;101390.22;;;6.41;100.00
37860;BME280;23698;52.014;5.190;2023-04-02T03:37:47;101400.25;;;6.49;100.00
37860;BME280;23698;52.014;5.190;2023-04-02T03:40:40;101398.66;;;7.54;100.00
37860;BME280;23698;52.014;5.190;2023-04-02T03:43:32;101408.31;;;6.94;100.00
37860;BME280;23698;52.014;5.190;2023-04-02T03:46:28;101417.47;;;6.84;100.00
37860;BME280;23698;52.014;5.190;2023-04-02T03:49:27;101410.47;;;6.91;100.00
37860;BME280;23698;52.014;5.190;2023-04-02T03:52:19;101432.94;;;7.17;100.00
37860;BME280;23698;52.014;5.190;2023-04-02T03:55:11;101432.03;;;7.09;100.00
37860;BME280;23698;52.014;5.190;2023-04-02T03:58:05;101446.19;;;7.11;100.00
37860;BME280;23698;52.014;5.190;2023-04-02T04:00:59;101444.97;;;6.87;100.00
37860;BME280;23698;52.014;5.190;2023-04-02T04:03:52;101448.19;;;6.73;100.00
37860;BME280;23698;52.014;5.190;2023-04-02T04:06:41;101459.94;;;6.72;100.00
37860;BME280;23698;52.014;5.190;2023-04-02T04:09:30;101462.75;;;6.24;100.00
37860;BME280;23698;52.014;5.190;2023-04-02T04:12:24;101468.41;;;6.31;100.00
37860;BME280;23698;52.014;5.190;2023-04-02T04:15:15;101478.75;;;6.26;100.00
37860;BME280;23698;52.014;5.190;2023-04-02T04:18:07;101475.59;;;6.31;100.00
37860;BME280;23698;52.014;5.190;2023-04-02T04:21:02;101480.44;;;6.27;100.00
37860;BME280;23698;52.014;5.190;2023-04-02T04:24:01;101487.31;;;6.12;100.00
37860;BME280;23698;52.014;5.190;2023-04-02T04:26:52;101498.78;;;6.14;100.00
37860;BME280;23698;52.014;5.190;2023-04-02T04:29:45;101508.31;;;6.08;100.00
37860;BME280;23698;52.014;5.190;2023-04-02T04:32:37;101511.63;;;6.30;100.00
37860;BME280;23698;52.014;5.190;2023-04-02T04:35:36;101516.00;;;6.31;100.00
37860;BME280;23698;52.014;5.190;2023-04-02T04:38:32;101527.72;;;6.12;100.00
37860;BME280;23698;52.014;5.190;2023-04-02T04:41:25;101527.53;;;6.13;100.00
37860;BME280;23698;52.014;5.190;2023-04-02T04:44:14;101529.09;;;6.16;100.00
37860;BME280;23698;52.014;5.190;2023-04-02T04:47:08;101539.72;;;6.55;100.00
37860;BME280;23698;52.014;5.190;2023-04-02T04:49:59;101533.22;;;6.85;100.00
37860;BME280;23698;52.014;5.190;2023-04-02T04:52:53;101544.41;;;7.08;100.00
37860;BME280;23698;52.014;5.190;2023-04-02T04:55:43;101546.38;;;6.60;100.00
37860;BME280;23698;52.014;5.190;2023-04-02T04:58:34;101560.44;;;5.97;100.00
37860;BME280;23698;52.014;5.190;2023-04-02T05:01:26;101565.25;;;6.03;100.00
37860;BME280;23698;52.014;5.190;2023-04-02T05:04:15;101572.78;;;5.80;100.00
37860;BME280;23698;52.014;5.190;2023-04-02T05:07:07;101575.38;;;6.39;100.00
37860;BME280;23698;52.014;5.190;2023-04-02T05:09:58;101587.53;;;6.53;100.00
37860;BME280;23698;52.014;5.190;2023-04-02T05:12:57;101592.59;;;6.09;100.00
37860;BME280;23698;52.014;5.190;2023-04-02T05:15:48;101600.50;;;5.81;100.00
37860;BME280;23698;52.014;5.190;2023-04-02T05:18:39;101598.50;;;5.34;100.00
37860;BME280;23698;52.014;5.190;2023-04-02T05:21:32;101603.91;;;5.44;100.00
37860;BME280;23698;52.014;5.190;2023-04-02T05:24:42;101612.81;;;5.44;100.00
37860;BME280;23698;52.014;5.190;2023-04-02T05:27:38;101625.50;;;5.23;100.00
37860;BME280;23698;52.014;5.190;2023-04-02T05:30:43;101623.56;;;5.44;100.00
37860;BME280;23698;52.014;5.190;2023-04-02T05:33:36;101634.22;;;5.05;100.00
37860;BME280;23698;52.014;5.190;2023-04-02T05:36:26;101636.56;;;5.29;100.00
37860;BME280;23698;52.014;5.190;2023-04-02T05:39:21;101641.16;;;5.08;100.00
37860;BME280;23698;52.014;5.190;2023-04-02T05:42:17;101654.28;;;5.01;100.00
37860;BME280;23698;52.014;5.190;2023-04-02T05:45:23;101659.28;;;5.95;100.00
37860;BME280;23698;52.014;5.190;2023-04-02T05:48:16;101675.13;;;5.59;100.00
37860;BME280;23698;52.014;5.190;2023-04-02T05:51:06;101681.34;;;5.70;100.00
37860;BME280;23698;52.014;5.190;2023-04-02T05:53:57;101693.97;;;5.89;100.00
37860;BME280;23698;52.014;5.190;2023-04-02T05:56:48;101709.94;;;5.51;100.00
37860;BME280;23698;52.014;5.190;2023-04-02T05:59:37;101710.97;;;5.19;100.00
37860;BME280;23698;52.014;5.190;2023-04-02T06:02:29;101728.81;;;5.30;100.00
37860;BME280;23698;52.014;5.190;2023-04-02T06:05:22;101732.50;;;4.98;100.00
37860;BME280;23698;52.014;5.190;2023-04-02T06:08:12;101738.97;;;4.96;100.00
37860;BME280;23698;52.014;5.190;2023-04-02T06:11:05;101739.59;;;4.57;100.00
37860;BME280;23698;52.014;5.190;2023-04-02T06:13:54;101751.63;;;4.63;100.00
37860;BME280;23698;52.014;5.190;2023-04-02T06:16:43;101762.38;;;4.63;100.00
37860;BME280;23698;52.014;5.190;2023-04-02T06:19:33;101770.31;;;4.85;100.00
37860;BME280;23698;52.014;5.190;2023-04-02T06:22:23;101785.59;;;4.85;100.00
37860;BME280;23698;52.014;5.190;2023-04-02T06:25:19;101786.25;;;4.77;100.00
37860;BME280;23698;52.014;5.190;2023-04-02T06:28:13;101795.88;;;4.59;100.00
37860;BME280;23698;52.014;5.190;2023-04-02T06:31:11;101797.63;;;4.69;100.00
37860;BME280;23698;52.014;5.190;2023-04-02T06:34:03;101807.78;;;4.66;100.00
37860;BME280;23698;52.014;5.190;2023-04-02T06:36:55;101812.25;;;4.77;100.00
37860;BME280;23698;52.014;5.190;2023-04-02T06:39:44;101822.22;;;4.65;100.00
37860;BME280;23698;52.014;5.190;2023-04-02T06:42:35;101825.44;;;5.01;100.00
37860;BME280;23698;52.014;5.190;2023-04-02T06:45:38;101842.75;;;5.08;100.00
37860;BME280;23698;52.014;5.190;2023-04-02T06:48:35;101841.81;;;4.98;100.00
37860;BME280;23698;52.014;5.190;2023-04-02T06:51:24;101839.84;;;4.79;100.00
37860;BME280;23698;52.014;5.190;2023-04-02T06:54:12;101849.94;;;4.54;100.00
37860;BME280;23698;52.014;5.190;2023-04-02T06:57:05;101858.38;;;4.82;100.00
37860;BME280;23698;52.014;5.190;2023-04-02T06:59:55;101863.75;;;4.82;100.00
37860;BME280;23698;52.014;5.190;2023-04-02T07:02:43;101872.25;;;4.98;100.00
37860;BME280;23698;52.014;5.190;2023-04-02T07:05:30;101868.78;;;5.07;100.00
37860;BME280;23698;52.014;5.190;2023-04-02T07:08:18;101883.25;;;5.16;100.00
37860;BME280;23698;52.014;5.190;2023-04-02T07:11:05;101884.81;;;5.19;100.00
37860;BME280;23698;52.014;5.190;2023-04-02T07:13:53;101887.78;;;4.95;100.00
37860;BME280;23698;52.014;5.190;2023-04-02T07:16:43;101887.84;;;5.04;100.00
37860;BME280;23698;52.014;5.190;2023-04-02T07:19:30;101900.50;;;5.35;100.00
37860;BME280;23698;52.014;5.190;2023-04-02T07:22:18;101904.22;;;5.22;100.00
37860;BME280;23698;52.014;5.190;2023-04-02T07:25:11;101911.84;;;5.59;100.00
37860;BME280;23698;52.014;5.190;2023-04-02T07:27:57;101928.63;;;5.30;100.00
37860;BME280;23698;52.014;5.190;2023-04-02T07:30:49;101932.91;;;5.12;100.00
37860;BME280;23698;52.014;5.190;2023-04-02T07:33:36;101934.94;;;5.41;100.00
37860;BME280;23698;52.014;5.190;2023-04-02T07:36:28;101933.81;;;5.43;100.00
37860;BME280;23698;52.014;5.190;2023-04-02T07:39:17;101939.50;;;5.50;100.00
37860;BME280;23698;52.014;5.190;2023-04-02T07:42:04;101942.13;;;6.13;100.00
37860;BME280;23698;52.014;5.190;2023-04-02T07:44:52;101948.25;;;5.63;100.00
37860;BME280;23698;52.014;5.190;2023-04-02T07:47:41;101952.50;;;5.45;100.00
37860;BME280;23698;52.014;5.190;2023-04-02T07:50:28;101963.38;;;5.22;100.00
37860;BME280;23698;52.014;5.190;2023-04-02T07:53:26;101963.28;;;4.91;100.00
37860;BME280;23698;52.014;5.190;2023-04-02T07:56:14;101969.47;;;5.03;100.00
37860;BME280;23698;52.014;5.190;2023-04-02T07:59:01;101962.78;;;4.86;100.00
37860;BME280;23698;52.014;5.190;2023-04-02T08:01:48;101970.75;;;4.77;100.00
37860;BME280;23698;52.014;5.190;2023-04-02T08:04:36;101974.69;;;4.72;100.00
37860;BME280;23698;52.014;5.190;2023-04-02T08:07:22;101974.91;;;4.81;100.00
37860;BME280;23698;52.014;5.190;2023-04-02T08:10:10;101983.41;;;4.42;100.00
37860;BME280;23698;52.014;5.190;2023-04-02T08:12:56;101988.28;;;4.60;100.00
37860;BME280;23698;52.014;5.190;2023-04-02T08:15:43;101988.28;;;4.60;100.00
37860;BME280;23698;52.014;5.190;2023-04-02T08:18:30;101989.63;;;4.98;100.00
37860;BME280;23698;52.014;5.190;2023-04-02T08:21:18;102000.50;;;4.96;100.00
37860;BME280;23698;52.014;5.190;2023-04-02T08:24:04;102002.03;;;5.10;100.00
37860;BME280;23698;52.014;5.190;2023-04-02T08:26:51;102013.72;;;5.32;100.00
37860;BME280;23698;52.014;5.190;2023-04-02T08:29:38;102025.97;;;5.13;100.00
37860;BME280;23698;52.014;5.190;2023-04-02T08:32:24;102029.88;;;5.20;100.00
37860;BME280;23698;52.014;5.190;2023-04-02T08:35:14;102033.72;;;5.39;100.00
37860;BME280;23698;52.014;5.190;2023-04-02T08:38:03;102033.47;;;6.26;100.00
37860;BME280;23698;52.014;5.190;2023-04-02T08:40:51;102051.06;;;5.99;100.00
37860;BME280;23698;52.014;5.190;2023-04-02T08:43:52;102047.28;;;6.12;100.00
37860;BME280;23698;52.014;5.190;2023-04-02T08:46:44;102059.94;;;5.79;100.00
37860;BME280;23698;52.014;5.190;2023-04-02T08:49:36;102057.53;;;6.18;100.00
37860;BME280;23698;52.014;5.190;2023-04-02T08:52:26;102070.75;;;6.00;100.00
37860;BME280;23698;52.014;5.190;2023-04-02T08:55:24;102082.19;;;5.81;100.00
37860;BME280;23698;52.014;5.190;2023-04-02T08:58:24;102092.41;;;5.66;100.00
37860;BME280;23698;52.014;5.190;2023-04-02T09:01:23;102091.22;;;5.59;100.00
37860;BME280;23698;52.014;5.190;2023-04-02T09:04:14;102092.38;;;6.40;100.00
37860;BME280;23698;52.014;5.190;2023-04-02T09:07:03;102103.53;;;6.36;100.00
37860;BME280;23698;52.014;5.190;2023-04-02T09:09:50;102111.03;;;6.32;100.00
37860;BME280;23698;52.014;5.190;2023-04-02T09:12:39;102108.91;;;6.36;100.00
37860;BME280;23698;52.014;5.190;2023-04-02T09:15:29;102119.56;;;6.37;100.00
37860;BME280;23698;52.014;5.190;2023-04-02T09:18:19;102123.66;;;6.32;100.00
37860;BME280;23698;52.014;5.190;2023-04-02T09:21:28;102144.03;;;5.92;100.00
37860;BME280;23698;52.014;5.190;2023-04-02T09:24:16;102137.97;;;6.11;100.00
37860;BME280;23698;52.014;5.190;2023-04-02T09:27:15;102146.59;;;5.61;100.00
37860;BME280;23698;52.014;5.190;2023-04-02T09:30:11;102149.59;;;5.79;100.00
37860;BME280;23698;52.014;5.190;2023-04-02T09:33:05;102163.66;;;5.39;100.00
37860;BME280;23698;52.014;5.190;2023-04-02T09:35:55;102152.72;;;5.63;100.00
37860;BME280;23698;52.014;5.190;2023-04-02T09:38:55;102168.06;;;5.73;100.00
37860;BME280;23698;52.014;5.190;2023-04-02T09:41:43;102170.81;;;5.61;100.00
37860;BME280;23698;52.014;5.190;2023-04-02T09:44:43;102165.69;;;6.02;100.00
37860;BME280;23698;52.014;5.190;2023-04-02T09:47:31;102176.13;;;5.84;100.00
37860;BME280;23698;52.014;5.190;2023-04-02T09:50:29;102185.34;;;6.56;100.00
37860;BME280;23698;52.014;5.190;2023-04-02T09:53:27;102193.94;;;6.29;100.00
37860;BME280;23698;52.014;5.190;2023-04-02T09:56:17;102203.78;;;6.18;100.00
37860;BME280;23698;52.014;5.190;2023-04-02T09:59:13;102196.78;;;5.83;100.00
37860;BME280;23698;52.014;5.190;2023-04-02T10:02:00;102199.72;;;6.66;100.00
37860;BME280;23698;52.014;5.190;2023-04-02T10:04:49;102213.66;;;5.97;100.00
37860;BME280;23698;52.014;5.190;2023-04-02T10:07:38;102219.94;;;6.18;100.00
37860;BME280;23698;52.014;5.190;2023-04-02T10:10:29;102216.50;;;5.73;100.00
37860;BME280;23698;52.014;5.190;2023-04-02T10:13:17;102210.81;;;6.73;100.00
37860;BME280;23698;52.014;5.190;2023-04-02T10:16:08;102217.31;;;6.70;100.00
37860;BME280;23698;52.014;5.190;2023-04-02T10:18:59;102230.84;;;7.01;100.00
37860;BME280;23698;52.014;5.190;2023-04-02T10:21:51;102226.81;;;7.26;100.00
37860;BME280;23698;52.014;5.190;2023-04-02T10:24:38;102232.31;;;7.65;100.00
37860;BME280;23698;52.014;5.190;2023-04-02T10:27:28;102250.13;;;7.27;100.00
37860;BME280;23698;52.014;5.190;2023-04-02T10:30:22;102259.75;;;7.30;100.00
37860;BME280;23698;52.014;5.190;2023-04-02T10:33:13;102270.94;;;7.56;100.00
37860;BME280;23698;52.014;5.190;2023-04-02T10:36:08;102276.16;;;7.98;100.00
37860;BME280;23698;52.014;5.190;2023-04-02T10:39:01;102279.53;;;7.71;100.00
37860;BME280;23698;52.014;5.190;2023-04-02T10:41:52;102280.75;;;8.27;100.00
37860;BME280;23698;52.014;5.190;2023-04-02T10:44:48;102292.72;;;8.44;100.00
37860;BME280;23698;52.014;5.190;2023-04-02T10:47:42;102307.25;;;8.43;100.00
37860;BME280;23698;52.014;5.190;2023-04-02T10:50:35;102300.22;;;8.89;100.00
37860;BME280;23698;52.014;5.190;2023-04-02T10:53:31;102297.84;;;8.47;100.00
37860;BME280;23698;52.014;5.190;2023-04-02T10:56:24;102299.50;;;8.97;100.00
37860;BME280;23698;52.014;5.190;2023-04-02T10:59:17;102290.44;;;9.25;100.00
37860;BME280;23698;52.014;5.190;2023-04-02T11:02:22;102297.63;;;9.07;100.00
37860;BME280;23698;52.014;5.190;2023-04-02T11:05:16;102309.44;;;9.16;100.00
37860;BME280;23698;52.014;5.190;2023-04-02T11:08:08;102309.72;;;9.50;100.00
37860;BME280;23698;52.014;5.190;2023-04-02T11:10:59;102323.81;;;9.54;100.00
37860;BME280;23698;52.014;5.190;2023-04-02T11:13:54;102327.28;;;10.01;100.00
37860;BME280;23698;52.014;5.190;2023-04-02T11:16:42;102335.81;;;10.07;100.00
37860;BME280;23698;52.014;5.190;2023-04-02T11:19:30;102334.22;;;9.86;100.00
37860;BME280;23698;52.014;5.190;2023-04-02T11:22:19;102347.16;;;9.64;100.00
37860;BME280;23698;52.014;5.190;2023-04-02T11:25:20;102357.94;;;9.74;100.00
37860;BME280;23698;52.014;5.190;2023-04-02T11:28:22;102350.75;;;10.38;100.00
37860;BME280;23698;52.014;5.190;2023-04-02T11:31:19;102358.34;;;10.35;100.00
37860;BME280;23698;52.014;5.190;2023-04-02T11:34:11;102367.19;;;10.55;100.00
37860;BME280;23698;52.014;5.190;2023-04-02T11:37:00;102363.28;;;10.39;100.00
37860;BME280;23698;52.014;5.190;2023-04-02T11:39:50;102373.97;;;10.41;100.00
37860;BME280;23698;52.014;5.190;2023-04-02T11:42:42;102368.03;;;9.82;100.00
37860;BME280;23698;52.014;5.190;2023-04-02T11:45:51;102372.94;;;10.52;100.00
37860;BME280;23698;52.014;5.190;2023-04-02T11:48:41;102376.72;;;10.77;100.00
37860;BME280;23698;52.014;5.190;2023-04-02T11:51:46;102364.16;;;10.76;100.00
37860;BME280;23698;52.014;5.190;2023-04-02T11:54:38;102374.19;;;10.30;100.00
37860;BME280;23698;52.014;5.190;2023-04-02T11:57:39;102366.69;;;10.95;100.00
37860;BME280;23698;52.014;5.190;2023-04-02T12:00:52;102380.03;;;11.33;100.00
37860;BME280;23698;52.014;5.190;2023-04-02T12:03:54;102387.28;;;11.24;100.00
37860;BME280;23698;52.014;5.190;2023-04-02T12:07:00;102393.56;;;11.51;100.00
37860;BME280;23698;52.014;5.190;2023-04-02T12:09:52;102397.47;;;11.48;100.00
37860;BME280;23698;52.014;5.190;2023-04-02T12:12:39;102390.75;;;11.34;100.00
37860;BME280;23698;52.014;5.190;2023-04-02T12:15:33;102383.34;;;11.79;100.00
37860;BME280;23698;52.014;5.190;2023-04-02T12:18:22;102392.00;;;11.75;100.00
37860;BME280;23698;52.014;5.190;2023-04-02T12:21:15;102396.25;;;11.25;100.00
37860;BME280;23698;52.014;5.190;2023-04-02T12:24:02;102396.78;;;11.46;100.00
37860;BME280;23698;52.014;5.190;2023-04-02T12:27:06;102398.38;;;11.65;100.00
37860;BME280;23698;52.014;5.190;2023-04-02T12:30:11;102408.34;;;11.57;100.00
37860;BME280;23698;52.014;5.190;2023-04-02T12:33:13;102401.69;;;11.43;100.00
37860;BME280;23698;52.014;5.190;2023-04-02T12:36:01;102409.22;;;11.83;100.00
37860;BME280;23698;52.014;5.190;2023-04-02T12:38:50;102404.09;;;12.65;100.00
37860;BME280;23698;52.014;5.190;2023-04-02T12:41:37;102395.28;;;12.13;100.00
37860;BME280;23698;52.014;5.190;2023-04-02T12:44:25;102402.56;;;12.71;100.00
37860;BME280;23698;52.014;5.190;2023-04-02T12:47:12;102414.41;;;12.45;100.00
37860;BME280;23698;52.014;5.190;2023-04-02T12:49:59;102417.78;;;11.70;100.00
37860;BME280;23698;52.014;5.190;2023-04-02T12:52:48;102411.56;;;11.52;100.00
37860;BME280;23698;52.014;5.190;2023-04-02T12:55:36;102421.25;;;11.55;100.00
37860;BME280;23698;52.014;5.190;2023-04-02T12:58:28;102406.91;;;11.97;100.00
37860;BME280;23698;52.014;5.190;2023-04-02T13:01:16;102424.97;;;11.80;100.00
37860;BME280;23698;52.014;5.190;2023-04-02T13:04:04;102420.03;;;11.49;100.00
37860;BME280;23698;52.014;5.190;2023-04-02T13:06:51;102426.13;;;11.95;100.00
37860;BME280;23698;52.014;5.190;2023-04-02T13:09:43;102430.81;;;11.59;100.00
37860;BME280;23698;52.014;5.190;2023-04-02T13:12:34;102429.28;;;12.17;100.00
37860;BME280;23698;52.014;5.190;2023-04-02T13:15:22;102422.50;;;12.29;100.00
37860;BME280;23698;52.014;5.190;2023-04-02T13:18:19;102417.34;;;12.09;100.00
37860;BME280;23698;52.014;5.190;2023-04-02T13:21:22;102431.56;;;11.51;100.00
37860;BME280;23698;52.014;5.190;2023-04-02T13:24:16;102422.09;;;11.81;100.00
37860;BME280;23698;52.014;5.190;2023-04-02T13:27:02;102424.03;;;12.32;100.00
37860;BME280;23698;52.014;5.190;2023-04-02T13:29:50;102431.63;;;12.62;100.00
37860;BME280;23698;52.014;5.190;2023-04-02T13:32:37;102435.63;;;12.42;100.00
37860;BME280;23698;52.014;5.190;2023-04-02T13:35:24;102431.66;;;12.20;100.00
37860;BME280;23698;52.014;5.190;2023-04-02T13:38:11;102437.53;;;11.99;100.00
37860;BME280;23698;52.014;5.190;2023-04-02T13:40:57;102429.63;;;12.30;100.00
37860;BME280;23698;52.014;5.190;2023-04-02T13:43:43;102433.84;;;12.75;100.00
37860;BME280;23698;52.014;5.190;2023-04-02T13:46:32;102438.97;;;12.87;100.00
37860;BME280;23698;52.014;5.190;2023-04-02T13:49:19;102448.66;;;12.73;100.00
37860;BME280;23698;52.014;5.190;2023-04-02T13:52:12;102441.94;;;12.42;100.00
37860;BME280;23698;52.014;5.190;2023-04-02T13:54:59;102453.81;;;12.41;100.00
37860;BME280;23698;52.014;5.190;2023-04-02T13:57:45;102455.25;;;12.19;100.00
37860;BME280;23698;52.014;5.190;2023-04-02T14:00:34;102462.97;;;11.98;100.00
37860;BME280;23698;52.014;5.190;2023-04-02T14:03:24;102452.78;;;12.34;100.00
37860;BME280;23698;52.014;5.190;2023-04-02T14:06:16;102461.75;;;12.85;100.00
37860;BME280;23698;52.014;5.190;2023-04-02T14:09:11;102462.25;;;12.73;100.00
37860;BME280;23698;52.014;5.190;2023-04-02T14:12:07;102464.88;;;13.48;100.00
37860;BME280;23698;52.014;5.190;2023-04-02T14:15:16;102459.88;;;14.32;100.00
37860;BME280;23698;52.014;5.190;2023-04-02T14:18:30;102459.06;;;14.71;100.00
37860;BME280;23698;52.014;5.190;2023-04-02T14:21:31;102470.03;;;14.15;100.00
37860;BME280;23698;52.014;5.190;2023-04-02T14:24:25;102469.81;;;13.28;100.00
37860;BME280;23698;52.014;5.190;2023-04-02T14:27:22;102470.75;;;12.70;100.00
37860;BME280;23698;52.014;5.190;2023-04-02T14:30:16;102476.94;;;12.03;100.00
37860;BME280;23698;52.014;5.190;2023-04-02T14:33:11;102492.66;;;11.47;100.00
37860;BME280;23698;52.014;5.190;2023-04-02T14:36:11;102484.09;;;11.86;100.00
37860;BME280;23698;52.014;5.190;2023-04-02T14:39:05;102488.06;;;11.92;100.00
37860;BME280;23698;52.014;5.190;2023-04-02T14:41:58;102486.88;;;12.55;100.00
37860;BME280;23698;52.014;5.190;2023-04-02T14:44:50;102491.91;;;13.09;100.00
37860;BME280;23698;52.014;5.190;2023-04-02T14:47:45;102486.88;;;12.55;100.00
37860;BME280;23698;52.014;5.190;2023-04-02T14:50:36;102491.00;;;12.75;100.00
37860;BME280;23698;52.014;5.190;2023-04-02T14:53:29;102496.28;;;12.34;100.00
37860;BME280;23698;52.014;5.190;2023-04-02T14:56:20;102499.97;;;13.43;100.00
37860;BME280;23698;52.014;5.190;2023-04-02T15:02:21;102498.41;;;13.49;100.00